• Join FlightAware (Why Join?)
  • Login
  • US Flag 
09:10PM EST


 

Airport Tracker/Info


-or-


 

Live Flight TrackerFlight Track Log ✈ SKW7367 ✈ 15-Nov-2013 ✈ KDTW - KAPN

Flight Track Log - Related Links

Times and Time Zones

All times are in EST time to prevent confusion due to time zone crossing. See the SKW7367 flight status page for this flight to view local times or setup timezone preferences in your user account.

Time Position Orientation Groundspeed Altitude Reporting Facility
EST Latitude Longitude Course Direction KTS MPH feet Rate Location/Type
04:02PM 42.2147 -83.3628 North 130 150 1,200  Level Cleveland Center
04:02PM 42.1922 -83.3819 212° Southwest 182 209 2,400 2,870 Climbing Cleveland Center
04:03PM 42.1550 -83.4303 224° Southwest 213 245 5,600 3,176 Climbing Cleveland Center
04:04PM 42.1472 -83.4367 211° Southwest 210 242 6,000 2,959 Climbing Cleveland Center
04:05PM 42.1333 -83.5172 257° West 244 281 9,200 3,000 Climbing Cleveland Center
04:05PM 42.1286 -83.5114 138° Southeast 231 266 9,100 857 Descending Cleveland Center
04:06PM 42.5939 -83.3798 North  Level Estimated
04:06PM 42.1786 -83.5831 313° West 284 327 10,000  Level Cleveland Center
04:06PM 42.1761 -83.5819 162° South 264 304 10,000 1,457 Level Cleveland Center
04:07PM 42.6893 -83.3865 North  Level Estimated
04:07PM 42.2569 -83.6072 347° North 290 334 11,700  Level Cleveland Center
04:08PM 42.3469 -83.5756 15° North 317 365 13,900 1,597 Climbing Cleveland Center
04:09PM 42.4322 -83.5433 16° North 323 372 15,000 532 Climbing Cleveland Center
04:10PM 42.5447 -83.5019 15° North 345 397 15,000  Level Cleveland Center
04:11PM 42.6361 -83.4675 15° North 342 394 15,000  Level Cleveland Center
04:12PM 42.7267 -83.4594 North 328 377 15,000  Level Cleveland Center
04:13PM 42.8114 -83.4833 348° North 324 373 15,000  Level Cleveland Center
04:14PM 42.8831 -83.5406 330° Northwest 304 350 15,000  Level Cleveland Center
04:15PM 42.9561 -83.5989 330° Northwest 304 350 15,000  Level Cleveland Center
04:16PM 43.0419 -83.6711 328° Northwest 302 348 15,000  Level Cleveland Center
04:17PM 43.1156 -83.7306 329° Northwest 305 351 15,000  Level Cleveland Center
04:18PM 43.1889 -83.7911 329° Northwest 308 354 15,000  Level Cleveland Center
04:19PM 43.2614 -83.8503 329° Northwest 306 352 15,000  Level Cleveland Center
04:20PM 43.3333 -83.9103 329° Northwest 302 348 15,000  Level Cleveland Center
04:21PM 43.3789 -83.9514 327° Northwest 303 349 15,000  Level Minneapolis Center
04:22PM 43.4508 -84.0111 329° Northwest 302 348 15,000  Level Minneapolis Center
04:23PM 43.5222 -84.0681 330° Northwest 299 344 15,000  Level Minneapolis Center
04:24PM 43.6094 -84.0492 North 321 369 15,000  Level Minneapolis Center
04:25PM 43.6981 -84.0211 13° North 325 374 15,000  Level Minneapolis Center
04:26PM 43.8019 -83.9881 13° North 322 371 15,000  Level Minneapolis Center
04:27PM 43.8883 -83.9594 13° North 321 369 15,000  Level Minneapolis Center
04:28PM 43.9792 -83.9297 13° North 327 376 15,000  Level Minneapolis Center
04:29PM 44.0725 -83.8986 13° North 323 372 15,000  Level Minneapolis Center
04:30PM 44.1597 -83.8706 13° North 325 374 15,000 -97 Level Minneapolis Center
04:31PM 44.2547 -83.8383 14° North 327 376 14,800 -726 Descending Minneapolis Center
04:32PM 44.3458 -83.8081 13° North 317 365 13,500 -1,200 Descending Minneapolis Center
04:33PM 44.4297 -83.7792 14° North 315 362 12,300 -1,200 Descending Minneapolis Center
04:34PM 44.5236 -83.7478 13° North 322 371 11,000 -1,161 Descending Minneapolis Center
04:35PM 44.6050 -83.7208 13° North 308 354 9,900 -1,161 Descending Minneapolis Center
04:36PM 44.6875 -83.6931 13° North 289 333 8,600 -1,210 Descending Minneapolis Center
04:37PM 44.7617 -83.6678 14° North 281 323 7,400 -1,210 Descending Minneapolis Center
04:38PM 44.8439 -83.6394 14° North 283 326 6,100 -1,210 Descending Minneapolis Center
04:39PM 44.9153 -83.6283 North 262 302 4,900 -1,065 Descending Minneapolis Center
04:40PM 44.9928 -83.6228 North 261 300 3,900 -677 Descending Minneapolis Center
04:41PM 45.0525 -83.6272 357° North 221 254 3,500 -581 Descending Minneapolis Center
04:42PM 45.1158 -83.6386 353° North 212 244 2,700 -581 Descending Minneapolis Center
04:43PM 45.1511 -83.6078 32° Northeast 184 212 2,300 -532 Descending Minneapolis Center
04:44PM 45.1311 -83.5611 121° Southeast 143 165 1,600 -672 Descending Minneapolis Center
04:46PM 45.0969 -83.5614 180° South 125 144 900 -432 Descending Minneapolis Center
04:47PM 45.0608 -83.5608 179° South 125 144 700 -194 Descending Minneapolis Center